sensor_id;sensor_type;location;lat;lon;timestamp;pressure;altitude;pressure_sealevel;temperature;humidity
75996;BME280;64681;49.738;9.004;2023-07-20T00:01:29;99265.56;;;18.48;77.66
75996;BME280;64681;49.738;9.004;2023-07-20T00:03:55;99244.34;;;18.36;77.68
75996;BME280;64681;49.738;9.004;2023-07-20T00:06:21;99271.78;;;18.56;77.63
75996;BME280;64681;49.738;9.004;2023-07-20T00:08:47;99259.00;;;18.53;76.99
75996;BME280;64681;49.738;9.004;2023-07-20T00:11:13;99246.66;;;18.52;77.00
75996;BME280;64681;49.738;9.004;2023-07-20T00:13:39;99276.38;;;18.48;77.20
75996;BME280;64681;49.738;9.004;2023-07-20T00:16:05;99245.09;;;18.33;77.30
75996;BME280;64681;49.738;9.004;2023-07-20T00:18:31;99258.25;;;18.42;77.17
75996;BME280;64681;49.738;9.004;2023-07-20T00:20:56;99255.91;;;18.33;77.18
75996;BME280;64681;49.738;9.004;2023-07-20T00:23:22;99259.75;;;18.25;77.14
75996;BME280;64681;49.738;9.004;2023-07-20T00:25:48;99264.78;;;18.26;77.40
75996;BME280;64681;49.738;9.004;2023-07-20T00:28:14;99255.91;;;18.26;77.37
75996;BME280;64681;49.738;9.004;2023-07-20T00:30:40;99258.59;;;18.22;77.25
75996;BME280;64681;49.738;9.004;2023-07-20T00:33:10;99250.88;;;18.10;77.45
75996;BME280;64681;49.738;9.004;2023-07-20T00:35:37;99277.94;;;18.35;77.16
75996;BME280;64681;49.738;9.004;2023-07-20T00:38:03;99265.16;;;18.21;76.93
75996;BME280;64681;49.738;9.004;2023-07-20T00:40:39;99283.31;;;18.21;77.29
75996;BME280;64681;49.738;9.004;2023-07-20T00:43:05;99252.03;;;18.16;77.11
75996;BME280;64681;49.738;9.004;2023-07-20T00:45:31;99266.28;;;18.06;77.32
75996;BME280;64681;49.738;9.004;2023-07-20T00:47:58;99263.59;;;18.13;77.07
75996;BME280;64681;49.738;9.004;2023-07-20T00:50:26;99277.88;;;18.10;77.35
75996;BME280;64681;49.738;9.004;2023-07-20T00:52:52;99261.97;;;17.94;77.41
75996;BME280;64681;49.738;9.004;2023-07-20T00:55:23;99261.59;;;17.92;77.13
75996;BME280;64681;49.738;9.004;2023-07-20T00:57:49;99264.63;;;17.79;77.58
75996;BME280;64681;49.738;9.004;2023-07-20T01:00:15;99284.44;;;18.01;77.46
75996;BME280;64681;49.738;9.004;2023-07-20T01:02:41;99292.13;;;17.99;77.77
75996;BME280;64681;49.738;9.004;2023-07-20T01:05:08;99297.56;;;18.07;77.45
75996;BME280;64681;49.738;9.004;2023-07-20T01:07:46;99297.56;;;18.10;77.35
75996;BME280;64681;49.738;9.004;2023-07-20T01:13:06;99287.91;;;18.06;77.34
75996;BME280;64681;49.738;9.004;2023-07-20T01:15:34;99278.22;;;18.01;77.11
75996;BME280;64681;49.738;9.004;2023-07-20T01:17:59;99282.47;;;18.02;77.15
75996;BME280;64681;49.738;9.004;2023-07-20T01:20:28;99283.63;;;18.01;77.28
75996;BME280;64681;49.738;9.004;2023-07-20T01:31:34;99288.97;;;17.90;77.42
75996;BME280;64681;49.738;9.004;2023-07-20T01:34:03;99283.56;;;17.86;77.61
75996;BME280;64681;49.738;9.004;2023-07-20T01:36:33;99286.72;;;17.96;76.94
75996;BME280;64681;49.738;9.004;2023-07-20T01:39:00;99295.97;;;17.98;77.00
75996;BME280;64681;49.738;9.004;2023-07-20T01:41:27;99280.09;;;17.86;77.06
75996;BME280;64681;49.738;9.004;2023-07-20T01:43:57;99294.03;;;17.92;77.15
75996;BME280;64681;49.738;9.004;2023-07-20T01:46:24;99287.13;;;17.98;77.02
75996;BME280;64681;49.738;9.004;2023-07-20T01:48:50;99274.69;;;17.86;76.94
75996;BME280;64681;49.738;9.004;2023-07-20T01:51:16;99287.13;;;18.01;76.78
75996;BME280;64681;49.738;9.004;2023-07-20T01:53:43;99279.41;;;17.96;76.97
75996;BME280;64681;49.738;9.004;2023-07-20T01:56:09;99283.63;;;17.97;77.10
75996;BME280;64681;49.738;9.004;2023-07-20T01:58:34;99243.78;;;17.69;77.02
75996;BME280;64681;49.738;9.004;2023-07-20T02:01:00;99276.25;;;17.91;76.92
75996;BME280;64681;49.738;9.004;2023-07-20T02:03:27;99279.78;;;18.02;76.56
75996;BME280;64681;49.738;9.004;2023-07-20T02:05:52;99279.72;;;17.91;76.82
75996;BME280;64681;49.738;9.004;2023-07-20T02:08:18;99294.09;;;18.13;75.00
75996;BME280;64681;49.738;9.004;2023-07-20T02:10:48;99287.88;;;17.98;75.17
75996;BME280;64681;49.738;9.004;2023-07-20T02:13:13;99285.84;;;17.70;75.91
75996;BME280;64681;49.738;9.004;2023-07-20T02:15:39;99276.59;;;17.78;75.59
75996;BME280;64681;49.738;9.004;2023-07-20T02:18:05;99283.94;;;17.81;75.02
75996;BME280;64681;49.738;9.004;2023-07-20T02:20:31;99284.63;;;17.60;75.70
75996;BME280;64681;49.738;9.004;2023-07-20T02:22:57;99264.16;;;17.55;75.86
75996;BME280;64681;49.738;9.004;2023-07-20T02:25:22;99278.06;;;17.61;76.03
75996;BME280;64681;49.738;9.004;2023-07-20T02:27:48;99272.63;;;17.50;76.14
75996;BME280;64681;49.738;9.004;2023-07-20T02:30:14;99292.34;;;17.58;75.88
75996;BME280;64681;49.738;9.004;2023-07-20T02:32:41;99289.97;;;17.46;76.03
75996;BME280;64681;49.738;9.004;2023-07-20T02:35:11;99286.75;;;17.25;76.88
75996;BME280;64681;49.738;9.004;2023-07-20T02:37:37;99295.19;;;17.17;76.97
75996;BME280;64681;49.738;9.004;2023-07-20T02:40:03;99293.25;;;17.14;76.96
75996;BME280;64681;49.738;9.004;2023-07-20T02:42:30;99295.59;;;17.19;76.84
75996;BME280;64681;49.738;9.004;2023-07-20T02:44:56;99260.69;;;16.92;76.71
75996;BME280;64681;49.738;9.004;2023-07-20T02:47:21;99267.13;;;16.76;77.56
75996;BME280;64681;49.738;9.004;2023-07-20T02:49:47;99278.13;;;17.02;76.91
75996;BME280;64681;49.738;9.004;2023-07-20T02:52:12;99301.25;;;17.03;77.38
75996;BME280;64681;49.738;9.004;2023-07-20T02:54:38;99294.19;;;16.87;77.36
75996;BME280;64681;49.738;9.004;2023-07-20T02:57:04;99303.84;;;16.92;77.28
75996;BME280;64681;49.738;9.004;2023-07-20T02:59:29;99291.63;;;17.02;76.08
75996;BME280;64681;49.738;9.004;2023-07-20T03:01:55;99290.25;;;16.77;77.25
75996;BME280;64681;49.738;9.004;2023-07-20T03:04:21;99291.47;;;16.84;77.15
75996;BME280;64681;49.738;9.004;2023-07-20T03:06:47;99307.47;;;16.62;78.12
75996;BME280;64681;49.738;9.004;2023-07-20T03:09:12;99294.41;;;16.64;78.10
75996;BME280;64681;49.738;9.004;2023-07-20T03:11:38;99308.00;;;16.78;77.88
75996;BME280;64681;49.738;9.004;2023-07-20T03:14:03;99306.00;;;16.72;78.47
75996;BME280;64681;49.738;9.004;2023-07-20T03:16:29;99297.28;;;16.89;77.79
75996;BME280;64681;49.738;9.004;2023-07-20T03:18:58;99288.63;;;16.66;77.98
75996;BME280;64681;49.738;9.004;2023-07-20T03:21:25;99300.84;;;16.97;76.56
75996;BME280;64681;49.738;9.004;2023-07-20T03:23:51;99293.00;;;16.85;76.77
75996;BME280;64681;49.738;9.004;2023-07-20T03:26:16;99302.59;;;16.78;75.80
75996;BME280;64681;49.738;9.004;2023-07-20T03:28:42;99295.94;;;16.65;75.86
75996;BME280;64681;49.738;9.004;2023-07-20T03:31:08;99300.16;;;16.63;76.12
75996;BME280;64681;49.738;9.004;2023-07-20T03:33:34;99309.56;;;16.83;75.50
75996;BME280;64681;49.738;9.004;2023-07-20T03:36:00;99301.03;;;16.74;75.22
75996;BME280;64681;49.738;9.004;2023-07-20T03:38:27;99304.38;;;16.64;75.92
75996;BME280;64681;49.738;9.004;2023-07-20T03:40:55;99325.34;;;16.81;75.31
75996;BME280;64681;49.738;9.004;2023-07-20T03:43:22;99313.81;;;16.84;75.33
75996;BME280;64681;49.738;9.004;2023-07-20T03:45:48;99317.31;;;16.88;74.97
75996;BME280;64681;49.738;9.004;2023-07-20T03:48:22;99328.19;;;16.96;75.10
75996;BME280;64681;49.738;9.004;2023-07-20T03:50:52;99321.72;;;17.07;73.86
75996;BME280;64681;49.738;9.004;2023-07-20T03:53:19;99322.47;;;17.01;74.24
75996;BME280;64681;49.738;9.004;2023-07-20T03:55:48;99333.22;;;16.97;74.47
75996;BME280;64681;49.738;9.004;2023-07-20T03:58:15;99330.66;;;16.70;74.88
75996;BME280;64681;49.738;9.004;2023-07-20T04:00:46;99317.63;;;16.80;74.20
75996;BME280;64681;49.738;9.004;2023-07-20T04:03:12;99320.84;;;16.51;74.96
75996;BME280;64681;49.738;9.004;2023-07-20T04:05:38;99319.94;;;16.40;75.74
75996;BME280;64681;49.738;9.004;2023-07-20T04:08:04;99319.09;;;16.28;75.74
75996;BME280;64681;49.738;9.004;2023-07-20T04:10:29;99324.13;;;16.34;75.81
75996;BME280;64681;49.738;9.004;2023-07-20T04:12:55;99320.63;;;16.29;75.34
75996;BME280;64681;49.738;9.004;2023-07-20T04:15:21;99330.88;;;16.17;76.05
75996;BME280;64681;49.738;9.004;2023-07-20T04:17:46;99330.31;;;16.00;76.33
75996;BME280;64681;49.738;9.004;2023-07-20T04:20:12;99331.59;;;16.13;76.08
75996;BME280;64681;49.738;9.004;2023-07-20T04:22:38;99329.34;;;16.16;76.47
75996;BME280;64681;49.738;9.004;2023-07-20T04:25:04;99327.44;;;16.16;76.69
75996;BME280;64681;49.738;9.004;2023-07-20T04:27:29;99333.25;;;16.22;76.59
75996;BME280;64681;49.738;9.004;2023-07-20T04:29:57;99326.22;;;16.13;76.68
75996;BME280;64681;49.738;9.004;2023-07-20T04:32:23;99339.69;;;16.13;76.81
75996;BME280;64681;49.738;9.004;2023-07-20T04:34:48;99326.44;;;16.32;76.24
75996;BME280;64681;49.738;9.004;2023-07-20T04:37:14;99333.81;;;16.38;76.15
75996;BME280;64681;49.738;9.004;2023-07-20T04:39:39;99333.50;;;16.43;76.04
75996;BME280;64681;49.738;9.004;2023-07-20T04:42:05;99338.91;;;16.47;75.88
75996;BME280;64681;49.738;9.004;2023-07-20T04:44:31;99328.59;;;16.56;75.59
75996;BME280;64681;49.738;9.004;2023-07-20T04:46:56;99340.75;;;16.81;74.93
75996;BME280;64681;49.738;9.004;2023-07-20T04:49:22;99338.63;;;16.97;72.94
75996;BME280;64681;49.738;9.004;2023-07-20T04:51:48;99344.84;;;17.08;72.36
75996;BME280;64681;49.738;9.004;2023-07-20T04:54:13;99333.69;;;17.10;71.99
75996;BME280;64681;49.738;9.004;2023-07-20T04:56:40;99342.66;;;17.21;72.20
75996;BME280;64681;49.738;9.004;2023-07-20T04:59:05;99339.13;;;17.17;72.22
75996;BME280;64681;49.738;9.004;2023-07-20T05:01:31;99337.25;;;17.21;72.46
75996;BME280;64681;49.738;9.004;2023-07-20T05:03:56;99310.13;;;17.00;72.17
75996;BME280;64681;49.738;9.004;2023-07-20T05:06:22;99336.84;;;17.19;72.71
75996;BME280;64681;49.738;9.004;2023-07-20T05:08:48;99336.13;;;17.26;72.53
75996;BME280;64681;49.738;9.004;2023-07-20T05:11:13;99322.28;;;17.35;72.12
75996;BME280;64681;49.738;9.004;2023-07-20T05:13:39;99338.97;;;17.51;71.21
75996;BME280;64681;49.738;9.004;2023-07-20T05:16:16;99328.63;;;17.64;71.09
75996;BME280;64681;49.738;9.004;2023-07-20T05:18:47;99317.09;;;17.78;70.06
75996;BME280;64681;49.738;9.004;2023-07-20T05:21:13;99312.13;;;17.91;69.51
75996;BME280;64681;49.738;9.004;2023-07-20T05:23:38;99313.38;;;18.04;68.67
75996;BME280;64681;49.738;9.004;2023-07-20T05:26:04;99320.41;;;18.27;68.02
75996;BME280;64681;49.738;9.004;2023-07-20T05:28:38;99318.91;;;18.66;67.56
75996;BME280;64681;49.738;9.004;2023-07-20T05:31:04;99297.25;;;18.80;67.52
75996;BME280;64681;49.738;9.004;2023-07-20T05:33:30;99322.00;;;19.22;66.39
75996;BME280;64681;49.738;9.004;2023-07-20T05:35:56;99326.97;;;19.53;65.50
75996;BME280;64681;49.738;9.004;2023-07-20T05:38:21;99327.28;;;19.76;64.36
75996;BME280;64681;49.738;9.004;2023-07-20T05:40:47;99308.56;;;20.11;63.86
75996;BME280;64681;49.738;9.004;2023-07-20T05:43:13;99322.28;;;20.49;61.47
75996;BME280;64681;49.738;9.004;2023-07-20T05:45:42;99317.44;;;20.79;60.78
75996;BME280;64681;49.738;9.004;2023-07-20T05:48:09;99322.97;;;21.10;59.85
75996;BME280;64681;49.738;9.004;2023-07-20T05:50:42;99326.91;;;21.43;58.91
75996;BME280;64681;49.738;9.004;2023-07-20T05:53:08;99332.75;;;21.80;57.50
75996;BME280;64681;49.738;9.004;2023-07-20T05:55:34;99321.53;;;22.05;56.37
75996;BME280;64681;49.738;9.004;2023-07-20T05:58:00;99309.13;;;22.32;54.35
75996;BME280;64681;49.738;9.004;2023-07-20T06:00:26;99316.38;;;22.69;54.23
75996;BME280;64681;49.738;9.004;2023-07-20T06:02:55;99293.75;;;22.96;52.79
75996;BME280;64681;49.738;9.004;2023-07-20T06:05:23;99317.41;;;23.47;51.12
75996;BME280;64681;49.738;9.004;2023-07-20T06:07:50;99327.50;;;23.86;50.46
75996;BME280;64681;49.738;9.004;2023-07-20T06:10:15;99329.00;;;24.28;49.99
75996;BME280;64681;49.738;9.004;2023-07-20T06:12:41;99322.28;;;24.65;48.78
75996;BME280;64681;49.738;9.004;2023-07-20T06:15:27;99316.53;;;25.09;47.68
75996;BME280;64681;49.738;9.004;2023-07-20T06:17:55;99330.53;;;25.70;46.88
75996;BME280;64681;49.738;9.004;2023-07-20T06:20:23;99330.97;;;26.24;46.06
75996;BME280;64681;49.738;9.004;2023-07-20T06:22:49;99331.13;;;26.81;42.29
75996;BME280;64681;49.738;9.004;2023-07-20T06:25:14;99336.25;;;26.92;41.82
75996;BME280;64681;49.738;9.004;2023-07-20T06:27:40;99319.88;;;26.15;41.49
75996;BME280;64681;49.738;9.004;2023-07-20T06:30:06;99352.78;;;27.01;42.17
75996;BME280;64681;49.738;9.004;2023-07-20T06:32:32;99333.25;;;27.35;41.02
75996;BME280;64681;49.738;9.004;2023-07-20T06:34:57;99348.03;;;28.04;37.56
75996;BME280;64681;49.738;9.004;2023-07-20T06:37:23;99331.66;;;29.65;36.36
75996;BME280;64681;49.738;9.004;2023-07-20T06:39:49;99353.03;;;31.14;34.62
75996;BME280;64681;49.738;9.004;2023-07-20T06:42:15;99358.47;;;32.13;32.58
75996;BME280;64681;49.738;9.004;2023-07-20T06:44:40;99332.44;;;33.18;28.70
75996;BME280;64681;49.738;9.004;2023-07-20T06:47:06;99340.00;;;34.02;28.54
75996;BME280;64681;49.738;9.004;2023-07-20T06:49:31;99352.16;;;34.48;27.07
75996;BME280;64681;49.738;9.004;2023-07-20T06:51:57;99345.59;;;33.81;27.58
75996;BME280;64681;49.738;9.004;2023-07-20T06:54:38;99329.22;;;33.77;29.02
75996;BME280;64681;49.738;9.004;2023-07-20T06:57:05;99338.59;;;34.55;25.89
75996;BME280;64681;49.738;9.004;2023-07-20T06:59:31;99343.59;;;35.23;25.66
75996;BME280;64681;49.738;9.004;2023-07-20T07:01:56;99359.72;;;36.67;25.16
75996;BME280;64681;49.738;9.004;2023-07-20T07:04:22;99359.06;;;37.44;24.00
75996;BME280;64681;49.738;9.004;2023-07-20T07:06:47;99348.25;;;38.21;23.62
75996;BME280;64681;49.738;9.004;2023-07-20T07:09:14;99357.06;;;38.74;22.99
75996;BME280;64681;49.738;9.004;2023-07-20T07:11:39;99353.56;;;37.99;23.54
75996;BME280;64681;49.738;9.004;2023-07-20T07:14:05;99352.31;;;39.26;22.23
75996;BME280;64681;49.738;9.004;2023-07-20T07:16:30;99363.06;;;39.55;21.52
75996;BME280;64681;49.738;9.004;2023-07-20T07:18:56;99360.41;;;40.09;21.36
75996;BME280;64681;49.738;9.004;2023-07-20T07:21:21;99358.31;;;39.82;21.18
75996;BME280;64681;49.738;9.004;2023-07-20T07:23:47;99357.69;;;40.83;20.39
75996;BME280;64681;49.738;9.004;2023-07-20T07:26:13;99349.22;;;41.74;18.21
75996;BME280;64681;49.738;9.004;2023-07-20T07:28:39;99346.19;;;39.28;20.14
75996;BME280;64681;49.738;9.004;2023-07-20T07:31:05;99352.41;;;37.83;22.21
75996;BME280;64681;49.738;9.004;2023-07-20T07:33:31;99335.84;;;35.95;24.26
75996;BME280;64681;49.738;9.004;2023-07-20T07:35:57;99343.81;;;32.78;29.10
75996;BME280;64681;49.738;9.004;2023-07-20T07:38:23;99353.13;;;30.95;32.31
75996;BME280;64681;49.738;9.004;2023-07-20T07:40:49;99359.47;;;28.93;34.43
75996;BME280;64681;49.738;9.004;2023-07-20T07:43:14;99364.59;;;28.22;35.95
75996;BME280;64681;49.738;9.004;2023-07-20T07:45:40;99356.78;;;27.23;36.65
75996;BME280;64681;49.738;9.004;2023-07-20T07:48:06;99354.97;;;25.48;41.42
75996;BME280;64681;49.738;9.004;2023-07-20T07:50:33;99369.81;;;25.76;40.99
75996;BME280;64681;49.738;9.004;2023-07-20T07:52:59;99365.13;;;26.45;40.53
75996;BME280;64681;49.738;9.004;2023-07-20T07:55:26;99352.47;;;27.79;36.43
75996;BME280;64681;49.738;9.004;2023-07-20T07:58:00;99343.91;;;29.09;35.04
75996;BME280;64681;49.738;9.004;2023-07-20T08:00:26;99370.03;;;31.13;33.26
75996;BME280;64681;49.738;9.004;2023-07-20T08:02:51;99369.63;;;32.55;30.94
75996;BME280;64681;49.738;9.004;2023-07-20T08:05:17;99375.63;;;31.57;30.60
75996;BME280;64681;49.738;9.004;2023-07-20T08:07:43;99358.03;;;29.91;33.37
75996;BME280;64681;49.738;9.004;2023-07-20T08:10:09;99357.56;;;27.10;37.78
75996;BME280;64681;49.738;9.004;2023-07-20T08:12:35;99357.75;;;27.29;37.20
75996;BME280;64681;49.738;9.004;2023-07-20T08:15:00;99367.28;;;27.82;36.02
75996;BME280;64681;49.738;9.004;2023-07-20T08:17:26;99360.84;;;27.53;36.10
75996;BME280;64681;49.738;9.004;2023-07-20T08:19:52;99360.50;;;27.95;35.80
75996;BME280;64681;49.738;9.004;2023-07-20T08:22:17;99367.25;;;28.35;35.27
75996;BME280;64681;49.738;9.004;2023-07-20T08:24:44;99342.56;;;27.82;36.04
75996;BME280;64681;49.738;9.004;2023-07-20T08:27:10;99354.19;;;27.06;37.67
75996;BME280;64681;49.738;9.004;2023-07-20T08:29:36;99367.31;;;26.37;38.06
75996;BME280;64681;49.738;9.004;2023-07-20T08:32:03;99363.38;;;24.42;41.94
75996;BME280;64681;49.738;9.004;2023-07-20T08:34:32;99366.09;;;24.25;43.61
75996;BME280;64681;49.738;9.004;2023-07-20T08:36:58;99353.28;;;26.10;43.05
75996;BME280;64681;49.738;9.004;2023-07-20T08:39:25;99353.06;;;28.96;36.68
75996;BME280;64681;49.738;9.004;2023-07-20T08:41:51;99362.47;;;31.22;32.41
75996;BME280;64681;49.738;9.004;2023-07-20T08:44:20;99350.00;;;32.17;30.59
75996;BME280;64681;49.738;9.004;2023-07-20T08:46:50;99344.56;;;31.33;29.26
75996;BME280;64681;49.738;9.004;2023-07-20T08:49:19;99344.38;;;31.21;29.30
75996;BME280;64681;49.738;9.004;2023-07-20T08:51:46;99342.03;;;29.71;31.68
75996;BME280;64681;49.738;9.004;2023-07-20T08:54:13;99355.06;;;29.24;34.38
75996;BME280;64681;49.738;9.004;2023-07-20T08:56:40;99349.59;;;27.38;36.07
75996;BME280;64681;49.738;9.004;2023-07-20T08:59:08;99359.03;;;27.82;34.73
75996;BME280;64681;49.738;9.004;2023-07-20T09:01:39;99356.25;;;28.35;36.91
75996;BME280;64681;49.738;9.004;2023-07-20T09:04:06;99348.34;;;28.87;35.63
75996;BME280;64681;49.738;9.004;2023-07-20T09:06:32;99356.44;;;30.60;32.30
75996;BME280;64681;49.738;9.004;2023-07-20T09:09:00;99348.59;;;32.22;29.06
75996;BME280;64681;49.738;9.004;2023-07-20T09:11:49;99344.59;;;34.11;27.30
75996;BME280;64681;49.738;9.004;2023-07-20T09:18:33;99364.63;;;35.70;25.07
75996;BME280;64681;49.738;9.004;2023-07-20T09:22:21;99346.44;;;35.91;25.80
75996;BME280;64681;49.738;9.004;2023-07-20T09:25:31;99366.88;;;36.34;25.83
75996;BME280;64681;49.738;9.004;2023-07-20T09:28:03;99359.00;;;37.14;23.25
75996;BME280;64681;49.738;9.004;2023-07-20T09:30:41;99350.41;;;36.53;22.42
75996;BME280;64681;49.738;9.004;2023-07-20T09:33:42;99347.66;;;36.36;24.10
75996;BME280;64681;49.738;9.004;2023-07-20T09:36:38;99338.88;;;35.97;23.37
75996;BME280;64681;49.738;9.004;2023-07-20T09:39:12;99348.31;;;34.89;25.43
75996;BME280;64681;49.738;9.004;2023-07-20T09:41:52;99337.16;;;33.11;26.64
75996;BME280;64681;49.738;9.004;2023-07-20T09:44:19;99333.16;;;31.25;27.90
75996;BME280;64681;49.738;9.004;2023-07-20T09:46:50;99335.84;;;31.49;28.17
75996;BME280;64681;49.738;9.004;2023-07-20T09:49:22;99319.22;;;30.80;29.73
75996;BME280;64681;49.738;9.004;2023-07-20T09:52:01;99336.59;;;30.04;30.14
75996;BME280;64681;49.738;9.004;2023-07-20T09:54:30;99310.00;;;29.12;31.42
75996;BME280;64681;49.738;9.004;2023-07-20T09:56:58;99320.53;;;29.13;32.83
75996;BME280;64681;49.738;9.004;2023-07-20T09:59:24;99309.69;;;28.82;33.20
75996;BME280;64681;49.738;9.004;2023-07-20T10:01:53;99324.19;;;28.23;35.14
75996;BME280;64681;49.738;9.004;2023-07-20T10:04:25;99329.56;;;28.36;32.31
75996;BME280;64681;49.738;9.004;2023-07-20T10:07:05;99329.66;;;27.02;35.88
75996;BME280;64681;49.738;9.004;2023-07-20T10:09:39;99322.28;;;26.26;37.75
75996;BME280;64681;49.738;9.004;2023-07-20T10:12:07;99310.25;;;26.49;36.29
75996;BME280;64681;49.738;9.004;2023-07-20T10:14:44;99319.06;;;27.14;36.27
75996;BME280;64681;49.738;9.004;2023-07-20T10:17:32;99317.09;;;27.49;35.05
75996;BME280;64681;49.738;9.004;2023-07-20T10:20:26;99327.56;;;27.29;35.49
75996;BME280;64681;49.738;9.004;2023-07-20T10:23:31;99321.50;;;27.34;35.53
75996;BME280;64681;49.738;9.004;2023-07-20T10:25:58;99321.63;;;27.97;33.76
75996;BME280;64681;49.738;9.004;2023-07-20T10:28:26;99321.16;;;27.45;34.90
75996;BME280;64681;49.738;9.004;2023-07-20T10:30:53;99286.03;;;27.53;35.36
75996;BME280;64681;49.738;9.004;2023-07-20T10:33:20;99312.84;;;27.80;34.72
75996;BME280;64681;49.738;9.004;2023-07-20T10:36:01;99305.47;;;27.45;34.50
75996;BME280;64681;49.738;9.004;2023-07-20T10:38:53;99315.38;;;27.43;33.61
75996;BME280;64681;49.738;9.004;2023-07-20T10:41:37;99288.44;;;27.06;35.06
75996;BME280;64681;49.738;9.004;2023-07-20T10:44:08;99302.88;;;26.84;35.38
75996;BME280;64681;49.738;9.004;2023-07-20T10:46:43;99293.75;;;26.88;35.23
75996;BME280;64681;49.738;9.004;2023-07-20T10:49:11;99290.91;;;27.13;35.35
75996;BME280;64681;49.738;9.004;2023-07-20T10:51:43;99284.66;;;26.91;35.05
75996;BME280;64681;49.738;9.004;2023-07-20T10:56:52;99276.06;;;27.68;32.90
75996;BME280;64681;49.738;9.004;2023-07-20T11:06:37;99270.28;;;27.75;34.04
75996;BME280;64681;49.738;9.004;2023-07-20T11:09:33;99287.69;;;28.13;34.47
75996;BME280;64681;49.738;9.004;2023-07-20T11:14:53;99272.63;;;26.75;33.76
75996;BME280;64681;49.738;9.004;2023-07-20T11:17:19;99283.09;;;27.47;34.70
75996;BME280;64681;49.738;9.004;2023-07-20T11:19:55;99268.81;;;27.84;34.11
75996;BME280;64681;49.738;9.004;2023-07-20T11:22:21;99268.41;;;28.45;33.29
75996;BME280;64681;49.738;9.004;2023-07-20T11:24:48;99260.22;;;28.72;31.50
75996;BME280;64681;49.738;9.004;2023-07-20T11:27:16;99272.69;;;28.55;33.45
75996;BME280;64681;49.738;9.004;2023-07-20T11:29:45;99260.78;;;28.58;32.34
75996;BME280;64681;49.738;9.004;2023-07-20T11:32:11;99259.84;;;28.42;31.83
75996;BME280;64681;49.738;9.004;2023-07-20T11:34:36;99268.41;;;28.45;33.43
75996;BME280;64681;49.738;9.004;2023-07-20T11:37:02;99274.34;;;28.02;33.58
75996;BME280;64681;49.738;9.004;2023-07-20T11:39:29;99281.34;;;28.25;32.23
75996;BME280;64681;49.738;9.004;2023-07-20T11:41:56;99285.63;;;27.63;33.67
75996;BME280;64681;49.738;9.004;2023-07-20T11:44:24;99269.69;;;27.49;33.44
75996;BME280;64681;49.738;9.004;2023-07-20T11:47:21;99280.19;;;27.73;34.25
75996;BME280;64681;49.738;9.004;2023-07-20T11:49:46;99275.97;;;27.90;33.70
75996;BME280;64681;49.738;9.004;2023-07-20T11:52:17;99258.31;;;27.91;31.62
75996;BME280;64681;49.738;9.004;2023-07-20T11:54:43;99274.88;;;27.47;32.88
75996;BME280;64681;49.738;9.004;2023-07-20T11:57:20;99271.69;;;26.91;32.85
75996;BME280;64681;49.738;9.004;2023-07-20T12:00:01;99266.88;;;26.95;33.14
75996;BME280;64681;49.738;9.004;2023-07-20T12:02:30;99248.25;;;27.35;34.81
75996;BME280;64681;49.738;9.004;2023-07-20T12:04:57;99250.72;;;28.05;33.67
75996;BME280;64681;49.738;9.004;2023-07-20T12:07:25;99247.19;;;28.45;31.64
75996;BME280;64681;49.738;9.004;2023-07-20T12:10:12;99249.97;;;28.04;33.08
75996;BME280;64681;49.738;9.004;2023-07-20T12:12:39;99238.63;;;28.24;31.09
75996;BME280;64681;49.738;9.004;2023-07-20T12:15:35;99241.97;;;28.38;32.87
75996;BME280;64681;49.738;9.004;2023-07-20T12:18:03;99234.06;;;28.49;30.96
75996;BME280;64681;49.738;9.004;2023-07-20T12:20:30;99237.41;;;28.44;33.62
75996;BME280;64681;49.738;9.004;2023-07-20T12:23:04;99249.47;;;28.37;31.49
75996;BME280;64681;49.738;9.004;2023-07-20T12:25:36;99235.75;;;27.87;34.63
75996;BME280;64681;49.738;9.004;2023-07-20T12:28:14;99233.31;;;28.49;34.82
75996;BME280;64681;49.738;9.004;2023-07-20T12:30:41;99241.88;;;28.60;30.59
75996;BME280;64681;49.738;9.004;2023-07-20T12:33:08;99240.47;;;28.46;32.69
75996;BME280;64681;49.738;9.004;2023-07-20T12:35:34;99237.84;;;28.33;31.73
75996;BME280;64681;49.738;9.004;2023-07-20T12:38:00;99230.06;;;27.82;32.09
75996;BME280;64681;49.738;9.004;2023-07-20T12:40:26;99228.34;;;27.75;32.46
75996;BME280;64681;49.738;9.004;2023-07-20T12:42:52;99227.19;;;28.35;33.48
75996;BME280;64681;49.738;9.004;2023-07-20T12:45:17;99232.72;;;28.82;33.36
75996;BME280;64681;49.738;9.004;2023-07-20T12:47:43;99228.59;;;28.49;32.08
75996;BME280;64681;49.738;9.004;2023-07-20T12:50:09;99223.09;;;28.68;31.29
75996;BME280;64681;49.738;9.004;2023-07-20T12:52:36;99220.22;;;28.99;30.55
75996;BME280;64681;49.738;9.004;2023-07-20T12:55:04;99220.00;;;29.21;30.12
75996;BME280;64681;49.738;9.004;2023-07-20T12:57:30;99208.16;;;28.78;30.11
75996;BME280;64681;49.738;9.004;2023-07-20T12:59:55;99217.91;;;28.61;31.25
75996;BME280;64681;49.738;9.004;2023-07-20T13:02:21;99219.22;;;28.19;31.12
75996;BME280;64681;49.738;9.004;2023-07-20T13:04:47;99220.94;;;27.53;33.48
75996;BME280;64681;49.738;9.004;2023-07-20T13:07:12;99228.50;;;27.17;34.94
75996;BME280;64681;49.738;9.004;2023-07-20T13:09:38;99205.34;;;27.41;34.24
75996;BME280;64681;49.738;9.004;2023-07-20T13:12:04;99226.38;;;27.44;34.13
75996;BME280;64681;49.738;9.004;2023-07-20T13:14:29;99231.28;;;26.47;35.40
75996;BME280;64681;49.738;9.004;2023-07-20T13:16:58;99222.66;;;26.36;36.61
75996;BME280;64681;49.738;9.004;2023-07-20T13:19:23;99226.63;;;25.96;35.78
75996;BME280;64681;49.738;9.004;2023-07-20T13:21:49;99220.59;;;25.88;36.81
75996;BME280;64681;49.738;9.004;2023-07-20T13:24:14;99222.16;;;26.15;37.19
75996;BME280;64681;49.738;9.004;2023-07-20T13:26:40;99221.63;;;26.91;34.26
75996;BME280;64681;49.738;9.004;2023-07-20T13:29:06;99220.34;;;27.05;35.77
75996;BME280;64681;49.738;9.004;2023-07-20T13:31:31;99218.78;;;27.79;34.34
75996;BME280;64681;49.738;9.004;2023-07-20T13:33:57;99215.22;;;28.10;31.77
75996;BME280;64681;49.738;9.004;2023-07-20T13:36:23;99218.13;;;27.66;33.06